sensor_id;sensor_type;location;lat;lon;timestamp;P1;durP1;ratioP1;P2;durP2;ratioP2
69912;SDS011;57198;52.082;5.108;2023-09-12T00:00:48;23.05;;;17.42;;
69912;SDS011;57198;52.082;5.108;2023-09-12T00:03:18;28.50;;;20.53;;
69912;SDS011;57198;52.082;5.108;2023-09-12T00:05:53;24.50;;;18.85;;
69912;SDS011;57198;52.082;5.108;2023-09-12T00:08:21;30.75;;;21.90;;
69912;SDS011;57198;52.082;5.108;2023-09-12T00:11:05;23.13;;;17.83;;
69912;SDS011;57198;52.082;5.108;2023-09-12T00:13:39;24.85;;;19.58;;
69912;SDS011;57198;52.082;5.108;2023-09-12T00:16:08;27.07;;;20.07;;
69912;SDS011;57198;52.082;5.108;2023-09-12T00:18:38;27.35;;;20.08;;
69912;SDS011;57198;52.082;5.108;2023-09-12T00:21:07;35.03;;;22.85;;
69912;SDS011;57198;52.082;5.108;2023-09-12T00:23:34;26.15;;;20.20;;
69912;SDS011;57198;52.082;5.108;2023-09-12T00:26:02;35.88;;;24.02;;
69912;SDS011;57198;52.082;5.108;2023-09-12T00:28:29;27.87;;;20.23;;
69912;SDS011;57198;52.082;5.108;2023-09-12T00:30:57;34.83;;;26.35;;
69912;SDS011;57198;52.082;5.108;2023-09-12T00:33:24;36.70;;;25.55;;
69912;SDS011;57198;52.082;5.108;2023-09-12T00:35:52;29.52;;;21.73;;
69912;SDS011;57198;52.082;5.108;2023-09-12T00:38:19;29.30;;;21.52;;
69912;SDS011;57198;52.082;5.108;2023-09-12T00:40:46;35.63;;;26.57;;
69912;SDS011;57198;52.082;5.108;2023-09-12T00:43:14;27.40;;;19.50;;
69912;SDS011;57198;52.082;5.108;2023-09-12T00:45:42;33.75;;;24.95;;
69912;SDS011;57198;52.082;5.108;2023-09-12T00:48:09;39.35;;;27.23;;
69912;SDS011;57198;52.082;5.108;2023-09-12T00:50:38;34.22;;;22.85;;
69912;SDS011;57198;52.082;5.108;2023-09-12T00:53:05;29.07;;;21.57;;
69912;SDS011;57198;52.082;5.108;2023-09-12T00:55:33;29.63;;;22.02;;
69912;SDS011;57198;52.082;5.108;2023-09-12T00:58:02;34.30;;;24.40;;
69912;SDS011;57198;52.082;5.108;2023-09-12T01:00:30;37.20;;;26.13;;
69912;SDS011;57198;52.082;5.108;2023-09-12T01:02:58;33.25;;;23.70;;
69912;SDS011;57198;52.082;5.108;2023-09-12T01:05:25;42.30;;;30.67;;
69912;SDS011;57198;52.082;5.108;2023-09-12T01:07:54;32.50;;;23.02;;
69912;SDS011;57198;52.082;5.108;2023-09-12T01:10:23;42.97;;;31.38;;
69912;SDS011;57198;52.082;5.108;2023-09-12T01:12:52;41.95;;;31.00;;
69912;SDS011;57198;52.082;5.108;2023-09-12T01:15:20;41.53;;;30.13;;
69912;SDS011;57198;52.082;5.108;2023-09-12T01:17:50;40.43;;;28.73;;
69912;SDS011;57198;52.082;5.108;2023-09-12T01:20:23;43.92;;;29.80;;
69912;SDS011;57198;52.082;5.108;2023-09-12T01:23:00;46.58;;;31.00;;
69912;SDS011;57198;52.082;5.108;2023-09-12T01:25:42;47.65;;;33.03;;
69912;SDS011;57198;52.082;5.108;2023-09-12T01:28:15;43.78;;;29.40;;
69912;SDS011;57198;52.082;5.108;2023-09-12T01:30:46;54.10;;;35.87;;
69912;SDS011;57198;52.082;5.108;2023-09-12T01:33:17;51.70;;;34.80;;
69912;SDS011;57198;52.082;5.108;2023-09-12T01:35:46;34.17;;;25.17;;
69912;SDS011;57198;52.082;5.108;2023-09-12T01:38:15;48.78;;;34.08;;
69912;SDS011;57198;52.082;5.108;2023-09-12T01:40:49;50.33;;;34.92;;
69912;SDS011;57198;52.082;5.108;2023-09-12T01:43:19;43.57;;;30.20;;
69912;SDS011;57198;52.082;5.108;2023-09-12T01:45:55;47.03;;;32.00;;
69912;SDS011;57198;52.082;5.108;2023-09-12T01:48:26;49.50;;;33.70;;
69912;SDS011;57198;52.082;5.108;2023-09-12T01:51:02;45.65;;;31.83;;
69912;SDS011;57198;52.082;5.108;2023-09-12T01:53:33;39.95;;;27.55;;
69912;SDS011;57198;52.082;5.108;2023-09-12T01:56:03;52.63;;;33.17;;
69912;SDS011;57198;52.082;5.108;2023-09-12T01:58:33;44.03;;;30.88;;
69912;SDS011;57198;52.082;5.108;2023-09-12T02:01:03;50.50;;;33.95;;
69912;SDS011;57198;52.082;5.108;2023-09-12T02:03:32;52.08;;;33.92;;
69912;SDS011;57198;52.082;5.108;2023-09-12T02:06:02;46.05;;;30.98;;
69912;SDS011;57198;52.082;5.108;2023-09-12T02:08:31;48.13;;;31.90;;
69912;SDS011;57198;52.082;5.108;2023-09-12T02:11:02;52.50;;;35.65;;
69912;SDS011;57198;52.082;5.108;2023-09-12T02:13:35;51.58;;;34.88;;
69912;SDS011;57198;52.082;5.108;2023-09-12T02:16:06;44.17;;;31.02;;
69912;SDS011;57198;52.082;5.108;2023-09-12T02:18:35;51.28;;;34.00;;
69912;SDS011;57198;52.082;5.108;2023-09-12T02:21:07;52.97;;;35.50;;
69912;SDS011;57198;52.082;5.108;2023-09-12T02:23:36;47.83;;;32.58;;
69912;SDS011;57198;52.082;5.108;2023-09-12T02:26:04;51.90;;;33.83;;
69912;SDS011;57198;52.082;5.108;2023-09-12T02:28:34;54.58;;;35.88;;
69912;SDS011;57198;52.082;5.108;2023-09-12T02:31:02;39.17;;;27.40;;
69912;SDS011;57198;52.082;5.108;2023-09-12T02:33:30;53.23;;;35.40;;
69912;SDS011;57198;52.082;5.108;2023-09-12T02:36:00;53.22;;;36.10;;
69912;SDS011;57198;52.082;5.108;2023-09-12T02:38:31;39.78;;;28.45;;
69912;SDS011;57198;52.082;5.108;2023-09-12T02:41:00;48.08;;;32.55;;
69912;SDS011;57198;52.082;5.108;2023-09-12T02:43:30;36.58;;;26.02;;
69912;SDS011;57198;52.082;5.108;2023-09-12T02:46:02;50.17;;;34.57;;
69912;SDS011;57198;52.082;5.108;2023-09-12T02:48:32;52.20;;;33.55;;
69912;SDS011;57198;52.082;5.108;2023-09-12T02:51:06;49.08;;;32.42;;
69912;SDS011;57198;52.082;5.108;2023-09-12T02:53:35;44.38;;;29.60;;
69912;SDS011;57198;52.082;5.108;2023-09-12T02:56:04;43.03;;;30.05;;
69912;SDS011;57198;52.082;5.108;2023-09-12T02:58:34;51.13;;;35.93;;
69912;SDS011;57198;52.082;5.108;2023-09-12T03:01:01;47.72;;;32.00;;
69912;SDS011;57198;52.082;5.108;2023-09-12T03:03:35;52.08;;;35.03;;
69912;SDS011;57198;52.082;5.108;2023-09-12T03:06:06;55.42;;;35.88;;
69912;SDS011;57198;52.082;5.108;2023-09-12T03:08:37;55.00;;;36.88;;
69912;SDS011;57198;52.082;5.108;2023-09-12T03:11:05;51.33;;;34.37;;
69912;SDS011;57198;52.082;5.108;2023-09-12T03:13:34;52.75;;;34.40;;
69912;SDS011;57198;52.082;5.108;2023-09-12T03:16:01;56.47;;;35.22;;
69912;SDS011;57198;52.082;5.108;2023-09-12T03:18:29;56.97;;;36.70;;
69912;SDS011;57198;52.082;5.108;2023-09-12T03:20:56;55.90;;;35.60;;
69912;SDS011;57198;52.082;5.108;2023-09-12T03:23:23;54.07;;;36.63;;
69912;SDS011;57198;52.082;5.108;2023-09-12T03:25:51;51.00;;;34.13;;
69912;SDS011;57198;52.082;5.108;2023-09-12T03:28:18;47.97;;;32.80;;
69912;SDS011;57198;52.082;5.108;2023-09-12T03:30:46;44.22;;;30.15;;
69912;SDS011;57198;52.082;5.108;2023-09-12T03:33:13;53.92;;;35.33;;
69912;SDS011;57198;52.082;5.108;2023-09-12T03:35:42;50.63;;;33.33;;
69912;SDS011;57198;52.082;5.108;2023-09-12T03:38:10;51.55;;;34.78;;
69912;SDS011;57198;52.082;5.108;2023-09-12T03:40:39;48.25;;;33.60;;
69912;SDS011;57198;52.082;5.108;2023-09-12T03:43:08;50.20;;;34.67;;
69912;SDS011;57198;52.082;5.108;2023-09-12T03:45:37;51.00;;;33.47;;
69912;SDS011;57198;52.082;5.108;2023-09-12T03:48:06;49.80;;;33.53;;
69912;SDS011;57198;52.082;5.108;2023-09-12T03:50:35;53.30;;;36.08;;
69912;SDS011;57198;52.082;5.108;2023-09-12T03:53:03;51.92;;;33.63;;
69912;SDS011;57198;52.082;5.108;2023-09-12T03:55:32;53.97;;;35.40;;
69912;SDS011;57198;52.082;5.108;2023-09-12T03:58:02;48.45;;;34.10;;
69912;SDS011;57198;52.082;5.108;2023-09-12T04:00:31;51.03;;;35.33;;
69912;SDS011;57198;52.082;5.108;2023-09-12T04:03:01;52.30;;;34.38;;
69912;SDS011;57198;52.082;5.108;2023-09-12T04:05:30;38.63;;;27.65;;
69912;SDS011;57198;52.082;5.108;2023-09-12T04:07:58;41.33;;;30.38;;
69912;SDS011;57198;52.082;5.108;2023-09-12T04:10:27;45.47;;;31.02;;
69912;SDS011;57198;52.082;5.108;2023-09-12T04:12:56;43.03;;;31.33;;
69912;SDS011;57198;52.082;5.108;2023-09-12T04:15:25;33.15;;;24.52;;
69912;SDS011;57198;52.082;5.108;2023-09-12T04:17:54;44.40;;;30.83;;
69912;SDS011;57198;52.082;5.108;2023-09-12T04:20:25;47.92;;;31.85;;
69912;SDS011;57198;52.082;5.108;2023-09-12T04:22:54;39.67;;;29.17;;
69912;SDS011;57198;52.082;5.108;2023-09-12T04:25:23;39.73;;;28.27;;
69912;SDS011;57198;52.082;5.108;2023-09-12T04:27:52;37.17;;;25.50;;
69912;SDS011;57198;52.082;5.108;2023-09-12T04:30:21;36.70;;;25.75;;
69912;SDS011;57198;52.082;5.108;2023-09-12T04:32:50;42.92;;;29.33;;
69912;SDS011;57198;52.082;5.108;2023-09-12T04:35:21;44.03;;;30.38;;
69912;SDS011;57198;52.082;5.108;2023-09-12T04:37:49;45.00;;;31.00;;
69912;SDS011;57198;52.082;5.108;2023-09-12T04:40:17;47.25;;;31.13;;
69912;SDS011;57198;52.082;5.108;2023-09-12T04:42:45;46.80;;;30.27;;
69912;SDS011;57198;52.082;5.108;2023-09-12T04:45:14;46.75;;;29.95;;
69912;SDS011;57198;52.082;5.108;2023-09-12T04:47:42;46.40;;;30.58;;
69912;SDS011;57198;52.082;5.108;2023-09-12T04:50:10;42.33;;;29.30;;
69912;SDS011;57198;52.082;5.108;2023-09-12T04:52:52;44.97;;;27.88;;
69912;SDS011;57198;52.082;5.108;2023-09-12T04:55:20;40.47;;;27.85;;
69912;SDS011;57198;52.082;5.108;2023-09-12T04:57:48;40.30;;;27.45;;
69912;SDS011;57198;52.082;5.108;2023-09-12T05:00:17;44.28;;;29.00;;
69912;SDS011;57198;52.082;5.108;2023-09-12T05:02:45;43.20;;;27.73;;
69912;SDS011;57198;52.082;5.108;2023-09-12T05:05:13;38.60;;;27.08;;
69912;SDS011;57198;52.082;5.108;2023-09-12T05:07:42;41.72;;;28.35;;
69912;SDS011;57198;52.082;5.108;2023-09-12T05:10:10;45.42;;;28.80;;
69912;SDS011;57198;52.082;5.108;2023-09-12T05:12:38;39.75;;;26.17;;
69912;SDS011;57198;52.082;5.108;2023-09-12T05:15:06;39.13;;;25.07;;
69912;SDS011;57198;52.082;5.108;2023-09-12T05:17:34;39.92;;;26.85;;
69912;SDS011;57198;52.082;5.108;2023-09-12T05:20:03;39.83;;;28.13;;
69912;SDS011;57198;52.082;5.108;2023-09-12T05:22:33;44.67;;;27.48;;
69912;SDS011;57198;52.082;5.108;2023-09-12T05:25:02;41.03;;;27.25;;
69912;SDS011;57198;52.082;5.108;2023-09-12T05:27:31;38.57;;;28.03;;
69912;SDS011;57198;52.082;5.108;2023-09-12T05:29:59;40.55;;;27.05;;
69912;SDS011;57198;52.082;5.108;2023-09-12T05:32:28;39.53;;;26.33;;
69912;SDS011;57198;52.082;5.108;2023-09-12T05:34:57;43.45;;;26.25;;
69912;SDS011;57198;52.082;5.108;2023-09-12T05:37:45;41.85;;;27.42;;
69912;SDS011;57198;52.082;5.108;2023-09-12T05:40:12;39.53;;;25.53;;
69912;SDS011;57198;52.082;5.108;2023-09-12T05:42:40;39.33;;;25.35;;
69912;SDS011;57198;52.082;5.108;2023-09-12T05:45:07;38.72;;;24.13;;
69912;SDS011;57198;52.082;5.108;2023-09-12T05:47:35;34.10;;;23.15;;
69912;SDS011;57198;52.082;5.108;2023-09-12T05:50:03;32.30;;;22.27;;
69912;SDS011;57198;52.082;5.108;2023-09-12T05:52:33;31.10;;;21.17;;
69912;SDS011;57198;52.082;5.108;2023-09-12T05:55:01;34.00;;;21.98;;
69912;SDS011;57198;52.082;5.108;2023-09-12T05:57:29;33.55;;;22.05;;
69912;SDS011;57198;52.082;5.108;2023-09-12T05:59:59;33.30;;;20.25;;
69912;SDS011;57198;52.082;5.108;2023-09-12T06:02:37;30.10;;;19.60;;
69912;SDS011;57198;52.082;5.108;2023-09-12T06:05:05;30.50;;;19.97;;
69912;SDS011;57198;52.082;5.108;2023-09-12T06:07:33;29.15;;;19.48;;
69912;SDS011;57198;52.082;5.108;2023-09-12T06:10:01;30.48;;;20.08;;
69912;SDS011;57198;52.082;5.108;2023-09-12T06:12:29;29.35;;;20.50;;
69912;SDS011;57198;52.082;5.108;2023-09-12T06:14:59;29.60;;;21.13;;
69912;SDS011;57198;52.082;5.108;2023-09-12T06:17:27;29.87;;;19.47;;
69912;SDS011;57198;52.082;5.108;2023-09-12T06:19:55;29.02;;;19.98;;
69912;SDS011;57198;52.082;5.108;2023-09-12T06:22:22;29.95;;;20.70;;
69912;SDS011;57198;52.082;5.108;2023-09-12T06:24:50;33.58;;;21.10;;
69912;SDS011;57198;52.082;5.108;2023-09-12T06:27:18;32.40;;;21.23;;
69912;SDS011;57198;52.082;5.108;2023-09-12T06:29:46;29.97;;;19.37;;
69912;SDS011;57198;52.082;5.108;2023-09-12T06:32:17;29.15;;;18.60;;
69912;SDS011;57198;52.082;5.108;2023-09-12T06:34:44;31.73;;;20.13;;
69912;SDS011;57198;52.082;5.108;2023-09-12T06:37:12;27.88;;;19.23;;
69912;SDS011;57198;52.082;5.108;2023-09-12T06:39:39;30.73;;;19.52;;
69912;SDS011;57198;52.082;5.108;2023-09-12T06:42:07;33.43;;;20.03;;
69912;SDS011;57198;52.082;5.108;2023-09-12T06:44:34;31.23;;;19.90;;
69912;SDS011;57198;52.082;5.108;2023-09-12T06:47:03;32.70;;;21.02;;
69912;SDS011;57198;52.082;5.108;2023-09-12T06:49:31;33.67;;;20.63;;
69912;SDS011;57198;52.082;5.108;2023-09-12T06:52:01;34.78;;;22.23;;
69912;SDS011;57198;52.082;5.108;2023-09-12T06:54:29;34.47;;;21.73;;
69912;SDS011;57198;52.082;5.108;2023-09-12T06:56:56;30.27;;;20.73;;
69912;SDS011;57198;52.082;5.108;2023-09-12T06:59:23;34.47;;;22.15;;
69912;SDS011;57198;52.082;5.108;2023-09-12T07:01:51;35.42;;;21.38;;
69912;SDS011;57198;52.082;5.108;2023-09-12T07:04:18;36.20;;;21.60;;
69912;SDS011;57198;52.082;5.108;2023-09-12T07:06:46;35.30;;;21.40;;
69912;SDS011;57198;52.082;5.108;2023-09-12T07:09:13;35.88;;;22.17;;
69912;SDS011;57198;52.082;5.108;2023-09-12T07:11:41;35.30;;;21.50;;
69912;SDS011;57198;52.082;5.108;2023-09-12T07:14:09;41.42;;;23.60;;
69912;SDS011;57198;52.082;5.108;2023-09-12T07:16:36;36.53;;;21.58;;
69912;SDS011;57198;52.082;5.108;2023-09-12T07:19:04;33.97;;;22.73;;
69912;SDS011;57198;52.082;5.108;2023-09-12T07:21:32;41.13;;;24.92;;
69912;SDS011;57198;52.082;5.108;2023-09-12T07:23:59;40.08;;;24.70;;
69912;SDS011;57198;52.082;5.108;2023-09-12T07:26:27;41.25;;;25.00;;
69912;SDS011;57198;52.082;5.108;2023-09-12T07:28:54;44.05;;;25.17;;
69912;SDS011;57198;52.082;5.108;2023-09-12T07:31:21;43.70;;;25.20;;
69912;SDS011;57198;52.082;5.108;2023-09-12T07:33:49;47.03;;;27.25;;
69912;SDS011;57198;52.082;5.108;2023-09-12T07:36:16;47.60;;;26.58;;
69912;SDS011;57198;52.082;5.108;2023-09-12T07:38:44;43.97;;;27.17;;
69912;SDS011;57198;52.082;5.108;2023-09-12T07:41:12;46.78;;;27.42;;
69912;SDS011;57198;52.082;5.108;2023-09-12T07:43:39;45.40;;;26.33;;
69912;SDS011;57198;52.082;5.108;2023-09-12T07:46:07;49.80;;;26.83;;
69912;SDS011;57198;52.082;5.108;2023-09-12T07:48:35;50.20;;;28.95;;
69912;SDS011;57198;52.082;5.108;2023-09-12T07:51:10;48.83;;;27.25;;
69912;SDS011;57198;52.082;5.108;2023-09-12T07:53:38;47.15;;;26.55;;
69912;SDS011;57198;52.082;5.108;2023-09-12T07:56:07;49.37;;;26.17;;
69912;SDS011;57198;52.082;5.108;2023-09-12T07:58:35;48.47;;;26.50;;
69912;SDS011;57198;52.082;5.108;2023-09-12T08:01:06;52.75;;;28.92;;
69912;SDS011;57198;52.082;5.108;2023-09-12T08:03:34;49.45;;;27.88;;
69912;SDS011;57198;52.082;5.108;2023-09-12T08:06:03;50.03;;;27.20;;
69912;SDS011;57198;52.082;5.108;2023-09-12T08:08:30;51.77;;;28.17;;
69912;SDS011;57198;52.082;5.108;2023-09-12T08:10:58;49.83;;;27.48;;
69912;SDS011;57198;52.082;5.108;2023-09-12T08:13:26;48.60;;;28.90;;
69912;SDS011;57198;52.082;5.108;2023-09-12T08:15:54;48.35;;;28.08;;
69912;SDS011;57198;52.082;5.108;2023-09-12T08:18:25;49.72;;;27.75;;
69912;SDS011;57198;52.082;5.108;2023-09-12T08:20:53;48.43;;;29.50;;
69912;SDS011;57198;52.082;5.108;2023-09-12T08:23:20;50.97;;;30.40;;
69912;SDS011;57198;52.082;5.108;2023-09-12T08:25:48;54.10;;;30.23;;
69912;SDS011;57198;52.082;5.108;2023-09-12T08:28:16;53.45;;;32.83;;
69912;SDS011;57198;52.082;5.108;2023-09-12T08:30:46;52.83;;;32.55;;
69912;SDS011;57198;52.082;5.108;2023-09-12T08:33:14;49.80;;;30.40;;
69912;SDS011;57198;52.082;5.108;2023-09-12T08:35:41;50.33;;;30.80;;
69912;SDS011;57198;52.082;5.108;2023-09-12T08:38:09;55.13;;;33.40;;
69912;SDS011;57198;52.082;5.108;2023-09-12T08:40:38;54.72;;;32.35;;
69912;SDS011;57198;52.082;5.108;2023-09-12T08:43:05;53.83;;;32.05;;
69912;SDS011;57198;52.082;5.108;2023-09-12T08:45:33;55.33;;;32.03;;
69912;SDS011;57198;52.082;5.108;2023-09-12T08:48:02;53.53;;;30.85;;
69912;SDS011;57198;52.082;5.108;2023-09-12T08:50:30;48.92;;;31.48;;
69912;SDS011;57198;52.082;5.108;2023-09-12T08:53:00;49.05;;;30.40;;
69912;SDS011;57198;52.082;5.108;2023-09-12T08:55:34;50.10;;;30.42;;
69912;SDS011;57198;52.082;5.108;2023-09-12T08:58:03;49.50;;;30.97;;
69912;SDS011;57198;52.082;5.108;2023-09-12T09:00:30;51.78;;;32.00;;
69912;SDS011;57198;52.082;5.108;2023-09-12T09:02:58;51.78;;;30.48;;
69912;SDS011;57198;52.082;5.108;2023-09-12T09:05:27;49.33;;;29.83;;
69912;SDS011;57198;52.082;5.108;2023-09-12T09:07:55;51.03;;;30.67;;
69912;SDS011;57198;52.082;5.108;2023-09-12T09:10:23;48.27;;;29.73;;
69912;SDS011;57198;52.082;5.108;2023-09-12T09:13:07;44.50;;;28.65;;
69912;SDS011;57198;52.082;5.108;2023-09-12T09:15:37;44.13;;;27.20;;
69912;SDS011;57198;52.082;5.108;2023-09-12T09:18:08;44.88;;;26.33;;
69912;SDS011;57198;52.082;5.108;2023-09-12T09:20:39;46.60;;;28.67;;
69912;SDS011;57198;52.082;5.108;2023-09-12T09:23:09;48.70;;;28.27;;
69912;SDS011;57198;52.082;5.108;2023-09-12T09:25:41;45.45;;;29.30;;
69912;SDS011;57198;52.082;5.108;2023-09-12T09:28:19;47.50;;;28.23;;
69912;SDS011;57198;52.082;5.108;2023-09-12T09:30:50;47.35;;;28.23;;
69912;SDS011;57198;52.082;5.108;2023-09-12T09:33:19;45.75;;;28.75;;
69912;SDS011;57198;52.082;5.108;2023-09-12T09:35:47;44.30;;;28.13;;
69912;SDS011;57198;52.082;5.108;2023-09-12T09:38:20;43.42;;;28.45;;
69912;SDS011;57198;52.082;5.108;2023-09-12T09:40:47;47.05;;;28.50;;
69912;SDS011;57198;52.082;5.108;2023-09-12T09:43:20;42.22;;;27.27;;
69912;SDS011;57198;52.082;5.108;2023-09-12T09:45:48;41.65;;;27.00;;
69912;SDS011;57198;52.082;5.108;2023-09-12T09:48:20;40.23;;;26.53;;
69912;SDS011;57198;52.082;5.108;2023-09-12T09:50:47;37.03;;;25.20;;
69912;SDS011;57198;52.082;5.108;2023-09-12T09:53:15;40.83;;;27.20;;
69912;SDS011;57198;52.082;5.108;2023-09-12T09:55:42;37.83;;;25.60;;
69912;SDS011;57198;52.082;5.108;2023-09-12T09:58:14;36.33;;;25.85;;
69912;SDS011;57198;52.082;5.108;2023-09-12T10:00:45;38.40;;;26.30;;
69912;SDS011;57198;52.082;5.108;2023-09-12T10:03:15;42.75;;;26.95;;
69912;SDS011;57198;52.082;5.108;2023-09-12T10:05:44;36.72;;;24.75;;
69912;SDS011;57198;52.082;5.108;2023-09-12T10:08:12;42.97;;;27.75;;
69912;SDS011;57198;52.082;5.108;2023-09-12T10:10:43;43.83;;;28.92;;
69912;SDS011;57198;52.082;5.108;2023-09-12T10:13:11;38.70;;;26.50;;
69912;SDS011;57198;52.082;5.108;2023-09-12T10:15:39;39.28;;;25.90;;
69912;SDS011;57198;52.082;5.108;2023-09-12T10:18:09;42.33;;;26.85;;
69912;SDS011;57198;52.082;5.108;2023-09-12T10:20:42;37.28;;;24.20;;
69912;SDS011;57198;52.082;5.108;2023-09-12T10:23:14;36.47;;;24.73;;
69912;SDS011;57198;52.082;5.108;2023-09-12T10:25:43;33.93;;;23.03;;
69912;SDS011;57198;52.082;5.108;2023-09-12T10:28:12;35.42;;;24.50;;
69912;SDS011;57198;52.082;5.108;2023-09-12T10:30:40;35.47;;;24.60;;
69912;SDS011;57198;52.082;5.108;2023-09-12T10:33:08;30.55;;;22.23;;
69912;SDS011;57198;52.082;5.108;2023-09-12T10:35:36;29.83;;;22.05;;
69912;SDS011;57198;52.082;5.108;2023-09-12T10:38:04;31.90;;;22.07;;
69912;SDS011;57198;52.082;5.108;2023-09-12T10:40:33;27.70;;;21.77;;
69912;SDS011;57198;52.082;5.108;2023-09-12T10:43:08;28.15;;;20.90;;
69912;SDS011;57198;52.082;5.108;2023-09-12T10:45:37;25.90;;;19.85;;
69912;SDS011;57198;52.082;5.108;2023-09-12T10:48:04;19.50;;;17.35;;
69912;SDS011;57198;52.082;5.108;2023-09-12T10:50:32;23.70;;;21.10;;
69912;SDS011;57198;52.082;5.108;2023-09-12T10:53:10;25.58;;;21.45;;
69912;SDS011;57198;52.082;5.108;2023-09-12T10:55:37;27.95;;;21.25;;
69912;SDS011;57198;52.082;5.108;2023-09-12T10:58:05;25.40;;;20.20;;
69912;SDS011;57198;52.082;5.108;2023-09-12T11:00:33;22.42;;;19.27;;
69912;SDS011;57198;52.082;5.108;2023-09-12T11:05:51;21.10;;;16.40;;
69912;SDS011;57198;52.082;5.108;2023-09-12T11:08:23;20.02;;;15.95;;
69912;SDS011;57198;52.082;5.108;2023-09-12T11:13:39;18.55;;;15.35;;
69912;SDS011;57198;52.082;5.108;2023-09-12T11:16:09;18.80;;;16.60;;
69912;SDS011;57198;52.082;5.108;2023-09-12T11:21:31;19.40;;;16.48;;
69912;SDS011;57198;52.082;5.108;2023-09-12T11:23:59;18.95;;;16.80;;
69912;SDS011;57198;52.082;5.108;2023-09-12T11:26:26;18.67;;;14.50;;
69912;SDS011;57198;52.082;5.108;2023-09-12T11:28:54;18.07;;;16.27;;
69912;SDS011;57198;52.082;5.108;2023-09-12T11:31:28;16.90;;;15.13;;
69912;SDS011;57198;52.082;5.108;2023-09-12T11:33:55;18.48;;;15.52;;
69912;SDS011;57198;52.082;5.108;2023-09-12T11:36:27;17.98;;;16.17;;
69912;SDS011;57198;52.082;5.108;2023-09-12T11:38:55;15.55;;;13.90;;
69912;SDS011;57198;52.082;5.108;2023-09-12T11:41:41;16.80;;;15.00;;
69912;SDS011;57198;52.082;5.108;2023-09-12T11:44:08;19.23;;;14.95;;
69912;SDS011;57198;52.082;5.108;2023-09-12T11:46:36;16.33;;;13.23;;
69912;SDS011;57198;52.082;5.108;2023-09-12T11:49:05;15.57;;;13.98;;
69912;SDS011;57198;52.082;5.108;2023-09-12T11:51:32;18.95;;;15.45;;
69912;SDS011;57198;52.082;5.108;2023-09-12T11:53:59;18.73;;;15.07;;
69912;SDS011;57198;52.082;5.108;2023-09-12T11:56:27;18.73;;;15.77;;
69912;SDS011;57198;52.082;5.108;2023-09-12T11:58:57;20.58;;;16.48;;
69912;SDS011;57198;52.082;5.108;2023-09-12T12:01:26;19.17;;;16.52;;
69912;SDS011;57198;52.082;5.108;2023-09-12T12:03:55;18.45;;;16.50;;
69912;SDS011;57198;52.082;5.108;2023-09-12T12:06:23;16.77;;;15.03;;
69912;SDS011;57198;52.082;5.108;2023-09-12T12:08:50;22.27;;;16.02;;
69912;SDS011;57198;52.082;5.108;2023-09-12T12:11:21;17.42;;;14.57;;
69912;SDS011;57198;52.082;5.108;2023-09-12T12:13:48;18.95;;;14.27;;
69912;SDS011;57198;52.082;5.108;2023-09-12T12:16:16;22.00;;;16.30;;
69912;SDS011;57198;52.082;5.108;2023-09-12T12:18:44;20.27;;;13.83;;
69912;SDS011;57198;52.082;5.108;2023-09-12T12:21:11;16.73;;;14.93;;
69912;SDS011;57198;52.082;5.108;2023-09-12T12:23:39;18.13;;;14.30;;
69912;SDS011;57198;52.082;5.108;2023-09-12T12:26:10;18.23;;;14.82;;
69912;SDS011;57198;52.082;5.108;2023-09-12T12:28:37;15.93;;;13.95;;
69912;SDS011;57198;52.082;5.108;2023-09-12T12:31:05;18.13;;;14.73;;
69912;SDS011;57198;52.082;5.108;2023-09-12T12:33:32;15.48;;;13.43;;
69912;SDS011;57198;52.082;5.108;2023-09-12T12:36:20;20.60;;;12.60;;
69912;SDS011;57198;52.082;5.108;2023-09-12T12:38:48;20.45;;;15.70;;
69912;SDS011;57198;52.082;5.108;2023-09-12T12:41:28;22.45;;;14.80;;
69912;SDS011;57198;52.082;5.108;2023-09-12T12:44:11;19.30;;;14.80;;
69912;SDS011;57198;52.082;5.108;2023-09-12T12:46:50;20.42;;;14.88;;
69912;SDS011;57198;52.082;5.108;2023-09-12T12:49:19;18.52;;;13.35;;
69912;SDS011;57198;52.082;5.108;2023-09-12T12:51:48;16.65;;;13.65;;
69912;SDS011;57198;52.082;5.108;2023-09-12T12:54:15;18.60;;;13.25;;
69912;SDS011;57198;52.082;5.108;2023-09-12T12:56:43;18.70;;;14.00;;
69912;SDS011;57198;52.082;5.108;2023-09-12T12:59:13;17.17;;;13.20;;
69912;SDS011;57198;52.082;5.108;2023-09-12T13:01:43;19.15;;;14.77;;
69912;SDS011;57198;52.082;5.108;2023-09-12T13:04:11;18.48;;;13.13;;
69912;SDS011;57198;52.082;5.108;2023-09-12T13:06:38;18.27;;;13.45;;
69912;SDS011;57198;52.082;5.108;2023-09-12T13:09:07;16.73;;;11.67;;
69912;SDS011;57198;52.082;5.108;2023-09-12T13:11:35;14.85;;;10.32;;
69912;SDS011;57198;52.082;5.108;2023-09-12T13:14:03;15.68;;;9.77;;
69912;SDS011;57198;52.082;5.108;2023-09-12T13:16:38;14.45;;;10.02;;
69912;SDS011;57198;52.082;5.108;2023-09-12T13:19:07;14.50;;;11.00;;
69912;SDS011;57198;52.082;5.108;2023-09-12T13:21:34;16.17;;;10.30;;
69912;SDS011;57198;52.082;5.108;2023-09-12T13:24:03;12.75;;;8.10;;
69912;SDS011;57198;52.082;5.108;2023-09-12T13:26:30;9.23;;;6.85;;
69912;SDS011;57198;52.082;5.108;2023-09-12T13:28:58;9.48;;;6.40;;
69912;SDS011;57198;52.082;5.108;2023-09-12T13:31:25;8.38;;;5.35;;
69912;SDS011;57198;52.082;5.108;2023-09-12T13:33:53;7.40;;;4.70;;
69912;SDS011;57198;52.082;5.108;2023-09-12T13:36:20;5.70;;;4.03;;
69912;SDS011;57198;52.082;5.108;2023-09-12T13:38:47;5.20;;;4.35;;
69912;SDS011;57198;52.082;5.108;2023-09-12T13:41:17;6.40;;;5.10;;
69912;SDS011;57198;52.082;5.108;2023-09-12T13:43:45;5.28;;;4.78;;
69912;SDS011;57198;52.082;5.108;2023-09-12T13:46:12;8.73;;;7.83;;
69912;SDS011;57198;52.082;5.108;2023-09-12T13:48:40;7.63;;;5.90;;
69912;SDS011;57198;52.082;5.108;2023-09-12T13:51:07;9.75;;;7.57;;
69912;SDS011;57198;52.082;5.108;2023-09-12T13:53:34;12.25;;;10.60;;
69912;SDS011;57198;52.082;5.108;2023-09-12T13:56:02;12.35;;;11.05;;
69912;SDS011;57198;52.082;5.108;2023-09-12T13:58:29;15.60;;;13.20;;
69912;SDS011;57198;52.082;5.108;2023-09-12T14:01:12;16.58;;;13.18;;
69912;SDS011;57198;52.082;5.108;2023-09-12T14:03:58;19.00;;;14.77;;
69912;SDS011;57198;52.082;5.108;2023-09-12T14:06:26;12.00;;;9.25;;
69912;SDS011;57198;52.082;5.108;2023-09-12T14:08:54;7.18;;;4.82;;
69912;SDS011;57198;52.082;5.108;2023-09-12T14:11:22;5.53;;;4.63;;
69912;SDS011;57198;52.082;5.108;2023-09-12T14:14:01;9.35;;;8.10;;
69912;SDS011;57198;52.082;5.108;2023-09-12T14:16:42;6.97;;;5.43;;
69912;SDS011;57198;52.082;5.108;2023-09-12T14:19:13;7.85;;;7.07;;
69912;SDS011;57198;52.082;5.108;2023-09-12T14:21:42;7.82;;;7.05;;
69912;SDS011;57198;52.082;5.108;2023-09-12T14:24:11;7.30;;;6.60;;
69912;SDS011;57198;52.082;5.108;2023-09-12T14:26:39;9.43;;;7.38;;
69912;SDS011;57198;52.082;5.108;2023-09-12T14:29:07;7.85;;;6.78;;
69912;SDS011;57198;52.082;5.108;2023-09-12T14:31:35;10.70;;;8.88;;
69912;SDS011;57198;52.082;5.108;2023-09-12T14:34:04;8.23;;;7.00;;
69912;SDS011;57198;52.082;5.108;2023-09-12T14:36:34;8.10;;;6.23;;
69912;SDS011;57198;52.082;5.108;2023-09-12T14:39:01;8.48;;;7.40;;
69912;SDS011;57198;52.082;5.108;2023-09-12T14:41:29;6.78;;;5.43;;
69912;SDS011;57198;52.082;5.108;2023-09-12T14:43:56;5.22;;;4.65;;